createdAt,value
2022-08-25T00:00:55.843Z,89.40
2022-08-25T00:03:42.647Z,89.60
2022-08-25T00:06:29.727Z,89.50
2022-08-25T00:09:18.070Z,89.70
2022-08-25T00:12:05.219Z,88.40
2022-08-25T00:14:50.729Z,89.10
2022-08-25T00:17:36.135Z,89.60
2022-08-25T00:20:22.394Z,89.90
2022-08-25T00:23:07.813Z,89.40
2022-08-25T00:25:53.766Z,89.50
2022-08-25T00:28:39.686Z,89.90
2022-08-25T00:31:25.089Z,90.10
2022-08-25T00:34:33.935Z,90.30
2022-08-25T00:37:19.993Z,90.30
2022-08-25T00:40:06.715Z,90.40
2022-08-25T00:42:51.971Z,90.20
2022-08-25T00:45:37.521Z,90.30
2022-08-25T00:48:22.962Z,90.40
2022-08-25T00:51:11.601Z,90.40
2022-08-25T00:53:57.150Z,90.30
2022-08-25T00:56:43.769Z,90.20
2022-08-25T00:59:30.024Z,90.50
2022-08-25T01:02:15.466Z,90.20
2022-08-25T01:05:00.728Z,90.20
2022-08-25T01:07:46.675Z,90.00
2022-08-25T01:10:33.255Z,89.40
2022-08-25T01:13:33.702Z,90.20
2022-08-25T01:16:18.904Z,90.30
2022-08-25T01:19:07.272Z,90.80
2022-08-25T01:21:53.985Z,90.30
2022-08-25T01:24:59.406Z,90.40
2022-08-25T01:27:44.897Z,90.90
2022-08-25T01:30:30.348Z,90.80
2022-08-25T01:33:19.192Z,90.80
2022-08-25T01:36:05.428Z,90.40
2022-08-25T01:38:51.236Z,90.40
2022-08-25T01:42:06.979Z,90.50
2022-08-25T01:44:52.207Z,90.90
2022-08-25T01:47:37.882Z,90.40
2022-08-25T01:50:23.352Z,90.50
2022-08-25T01:53:19.658Z,90.70
2022-08-25T01:56:12.729Z,90.50
2022-08-25T01:58:57.805Z,90.70
2022-08-25T02:01:43.336Z,90.60
2022-08-25T02:04:32.250Z,90.30
2022-08-25T02:07:18.032Z,90.20
2022-08-25T02:10:05.632Z,90.70
2022-08-25T02:12:51.017Z,90.50
2022-08-25T02:15:44.463Z,90.30
2022-08-25T02:18:30.283Z,90.00
2022-08-25T02:21:15.750Z,90.60
2022-08-25T02:24:01.559Z,91.00
2022-08-25T02:26:46.903Z,91.00
2022-08-25T02:29:33.819Z,90.80
2022-08-25T02:32:19.350Z,91.30
2022-08-25T02:35:06.149Z,91.30
2022-08-25T02:37:53.515Z,91.20
2022-08-25T02:40:39.847Z,91.30
2022-08-25T02:43:26.701Z,91.30
2022-08-25T02:46:12.807Z,91.40
2022-08-25T02:48:57.920Z,91.80
2022-08-25T02:51:43.291Z,91.70
2022-08-25T02:54:28.727Z,91.40
2022-08-25T02:57:15.768Z,91.80
2022-08-25T03:00:00.890Z,92.20
2022-08-25T03:02:47.333Z,91.70
2022-08-25T03:05:33.664Z,91.70
2022-08-25T03:08:18.908Z,91.50
2022-08-25T03:11:05.397Z,91.40
2022-08-25T03:13:51.162Z,91.60
2022-08-25T03:16:36.627Z,91.70
2022-08-25T03:19:22.246Z,91.70
2022-08-25T03:22:07.442Z,91.20
2022-08-25T03:25:12.914Z,91.60
2022-08-25T03:27:58.179Z,91.60
2022-08-25T03:30:44.448Z,91.60
2022-08-25T03:33:30.504Z,91.50
2022-08-25T03:36:15.945Z,91.90
2022-08-25T03:39:01.229Z,91.90
2022-08-25T03:41:47.268Z,91.50
2022-08-25T03:44:33.525Z,91.50
2022-08-25T03:47:18.971Z,91.80
2022-08-25T03:50:06.289Z,91.70
2022-08-25T03:52:54.845Z,91.70
2022-08-25T03:55:40.976Z,92.00
2022-08-25T03:58:26.186Z,92.40
2022-08-25T04:01:11.918Z,92.20
2022-08-25T04:03:57.390Z,92.10
2022-08-25T04:06:44.173Z,91.90
2022-08-25T04:09:30.832Z,91.90
2022-08-25T04:12:17.553Z,91.80
2022-08-25T04:15:05.949Z,91.90
2022-08-25T04:17:51.980Z,91.70
2022-08-25T04:20:45.929Z,91.80
2022-08-25T04:23:32.381Z,91.60
2022-08-25T04:26:21.372Z,91.90
2022-08-25T04:29:09.877Z,91.80
2022-08-25T04:31:55.405Z,92.10
2022-08-25T04:34:41.824Z,92.40
2022-08-25T04:37:26.924Z,92.60
2022-08-25T04:40:12.565Z,92.60
2022-08-25T04:42:58.196Z,92.60
2022-08-25T04:45:43.551Z,92.50
2022-08-25T04:48:28.972Z,91.60
2022-08-25T04:51:17.295Z,92.70
2022-08-25T04:54:05.422Z,92.60
2022-08-25T04:56:54.323Z,93.10
2022-08-25T04:59:43.516Z,92.70
2022-08-25T05:02:29.008Z,93.50
2022-08-25T05:05:14.338Z,93.50
2022-08-25T05:07:59.948Z,93.30
2022-08-25T05:10:45.131Z,93.40
2022-08-25T05:13:30.932Z,93.20
2022-08-25T05:16:17.381Z,93.50
2022-08-25T05:19:02.689Z,93.40
2022-08-25T05:21:48.063Z,93.10
2022-08-25T05:24:33.308Z,93.20
2022-08-25T05:27:18.647Z,93.80
2022-08-25T05:30:04.499Z,93.80
2022-08-25T05:32:50.097Z,93.90
2022-08-25T05:35:36.172Z,93.60
2022-08-25T05:38:22.250Z,93.90
2022-08-25T05:41:15.376Z,93.90
2022-08-25T05:44:00.559Z,94.00
2022-08-25T05:46:47.187Z,94.30
2022-08-25T05:49:32.487Z,94.50
2022-08-25T05:52:20.167Z,94.60
2022-08-25T05:55:06.748Z,94.50
2022-08-25T05:57:51.740Z,94.80
2022-08-25T06:00:38.204Z,95.10
2022-08-25T06:03:23.599Z,95.10
2022-08-25T06:06:09.267Z,95.20
2022-08-25T06:08:54.673Z,94.60
2022-08-25T06:11:40.901Z,95.00
2022-08-25T06:14:27.377Z,95.20
2022-08-25T06:17:12.771Z,95.50
2022-08-25T06:19:58.084Z,95.40
2022-08-25T06:22:43.877Z,95.20
2022-08-25T06:25:32.611Z,95.20
2022-08-25T06:28:18.189Z,95.50
2022-08-25T06:31:04.014Z,95.00
2022-08-25T06:33:50.814Z,94.90
2022-08-25T06:36:36.112Z,95.40
2022-08-25T06:39:22.312Z,95.60
2022-08-25T06:42:07.463Z,95.90
2022-08-25T06:44:52.845Z,96.00
2022-08-25T06:47:38.234Z,95.90
2022-08-25T06:50:23.956Z,95.70
2022-08-25T06:53:09.407Z,96.10
2022-08-25T06:55:58.018Z,96.20
2022-08-25T06:58:43.250Z,96.50
2022-08-25T07:01:28.530Z,96.10
2022-08-25T07:04:17.340Z,96.10
2022-08-25T07:07:04.093Z,96.30
2022-08-25T07:09:49.245Z,96.20
2022-08-25T07:12:34.632Z,96.00
2022-08-25T07:15:21.012Z,95.80
2022-08-25T07:18:07.490Z,95.90
2022-08-25T07:20:53.872Z,95.80
2022-08-25T07:23:40.242Z,96.00
2022-08-25T07:26:43.678Z,96.10
2022-08-25T07:32:35.389Z,95.70
2022-08-25T07:35:23.979Z,95.70
2022-08-25T07:38:10.194Z,95.50
2022-08-25T07:41:02.613Z,95.80
2022-08-25T07:43:47.956Z,95.50
2022-08-25T07:46:35.228Z,95.60
2022-08-25T07:49:23.246Z,95.60
2022-08-25T07:52:09.257Z,95.20
2022-08-25T07:54:55.145Z,94.90
2022-08-25T07:57:41.105Z,95.20
2022-08-25T08:00:29.849Z,95.30
2022-08-25T08:03:35.316Z,94.90
2022-08-25T08:06:24.074Z,94.90
2022-08-25T08:09:09.461Z,94.60
2022-08-25T08:11:54.644Z,94.80
2022-08-25T08:14:45.091Z,94.30
2022-08-25T08:17:31.936Z,94.40
2022-08-25T08:20:17.739Z,94.10
2022-08-25T08:23:08.878Z,94.30
2022-08-25T08:25:54.275Z,93.80
2022-08-25T08:28:39.767Z,93.80
2022-08-25T08:31:28.338Z,93.60
2022-08-25T08:34:13.885Z,93.80
2022-08-25T08:37:00.277Z,93.50
2022-08-25T08:39:45.722Z,92.70
2022-08-25T08:42:46.986Z,92.40
2022-08-25T08:45:50.915Z,92.30
2022-08-25T08:48:40.980Z,92.20
2022-08-25T08:51:38.493Z,91.80
2022-08-25T08:54:28.770Z,91.40
2022-08-25T08:57:23.024Z,91.10
2022-08-25T09:00:09.352Z,91.40
2022-08-25T09:03:06.908Z,91.00
2022-08-25T09:05:56.287Z,90.50
2022-08-25T09:08:44.857Z,90.20
2022-08-25T09:12:09.041Z,90.20
2022-08-25T09:16:01.416Z,90.00
2022-08-25T09:18:58.109Z,89.60
2022-08-25T09:21:57.088Z,88.40
2022-08-25T09:24:52.315Z,86.10
2022-08-25T09:27:48.271Z,83.40
2022-08-25T09:30:49.009Z,82.20
2022-08-25T09:33:35.587Z,82.50
2022-08-25T09:36:21.160Z,80.30
2022-08-25T09:39:07.669Z,80.30
2022-08-25T09:42:00.261Z,80.30
2022-08-25T09:44:48.437Z,79.30
2022-08-25T09:47:44.297Z,78.70
2022-08-25T09:50:35.050Z,79.80
2022-08-25T09:53:21.710Z,79.20
2022-08-25T09:56:10.378Z,77.70
2022-08-25T09:59:21.284Z,77.50
2022-08-25T10:02:26.355Z,79.10
2022-08-25T10:05:21.001Z,78.50
2022-08-25T10:08:24.694Z,78.30
2022-08-25T10:11:28.971Z,78.70
2022-08-25T10:14:36.232Z,79.70
2022-08-25T10:17:31.679Z,79.90
2022-08-25T10:20:25.734Z,79.50
2022-08-25T10:23:15.045Z,79.50
2022-08-25T10:26:06.093Z,79.60
2022-08-25T10:29:25.897Z,78.10
2022-08-25T10:32:22.460Z,79.00
2022-08-25T10:35:20.301Z,79.40
2022-08-25T10:38:14.519Z,76.70
2022-08-25T10:41:58.888Z,77.40
2022-08-25T10:45:43.168Z,77.70
2022-08-25T10:48:50.123Z,77.40
2022-08-25T10:52:12.062Z,75.20
2022-08-25T10:55:11.869Z,76.10
2022-08-25T10:58:34.156Z,75.90
2022-08-25T11:01:36.663Z,74.30
2022-08-25T11:04:37.798Z,73.60
2022-08-25T11:07:34.456Z,74.60
2022-08-25T11:10:25.950Z,74.00
2022-08-25T11:13:31.633Z,74.80
2022-08-25T11:16:41.707Z,75.10
2022-08-25T11:19:38.843Z,74.00
2022-08-25T11:22:39.694Z,74.70
2022-08-25T11:25:38.250Z,73.50
2022-08-25T11:28:35.753Z,74.30
2022-08-25T11:31:23.092Z,74.10
2022-08-25T11:34:16.348Z,74.20
2022-08-25T11:37:22.942Z,74.00
2022-08-25T11:40:27.910Z,73.30
2022-08-25T11:43:52.513Z,73.00
2022-08-25T11:47:02.970Z,74.10
2022-08-25T11:50:04.560Z,74.00
2022-08-25T11:52:56.677Z,73.80
2022-08-25T11:55:53.921Z,72.50
2022-08-25T11:58:41.655Z,71.50
2022-08-25T12:01:43.113Z,71.40
2022-08-25T12:04:45.036Z,72.00
2022-08-25T12:08:13.495Z,70.90
2022-08-25T12:11:11.220Z,71.20
2022-08-25T12:14:40.886Z,71.00
2022-08-25T12:17:37.115Z,72.20
2022-08-25T12:20:53.580Z,71.40
2022-08-25T12:23:44.831Z,72.10
2022-08-25T12:26:36.494Z,72.00
2022-08-25T12:29:34.631Z,73.10
2022-08-25T12:32:41.068Z,72.80
2022-08-25T12:35:31.007Z,72.90
2022-08-25T12:38:49.571Z,70.30
2022-08-25T12:41:55.415Z,70.70
2022-08-25T12:44:48.605Z,70.00
2022-08-25T12:47:35.375Z,69.10
2022-08-25T12:50:38.856Z,67.60
2022-08-25T12:53:35.305Z,68.30
2022-08-25T12:56:27.388Z,68.10
2022-08-25T12:59:21.894Z,68.10
2022-08-25T13:02:39.775Z,68.10
2022-08-25T13:05:47.941Z,68.40
2022-08-25T13:09:00.475Z,67.40
2022-08-25T13:12:02.494Z,67.10
2022-08-25T13:14:54.373Z,66.50
2022-08-25T13:17:39.434Z,65.70
2022-08-25T13:20:29.093Z,65.30
2022-08-25T13:23:19.504Z,64.40
2022-08-25T13:26:06.474Z,65.10
2022-08-25T13:29:00.503Z,66.20
2022-08-25T13:32:09.355Z,66.50
2022-08-25T13:35:19.668Z,66.00
2022-08-25T13:38:16.575Z,67.10
2022-08-25T13:41:09.223Z,66.10
2022-08-25T13:43:55.905Z,65.90
2022-08-25T13:46:47.401Z,65.90
2022-08-25T13:49:32.593Z,64.10
2022-08-25T13:52:29.286Z,64.00
2022-08-25T13:55:27.471Z,65.60
2022-08-25T13:58:17.220Z,65.20
2022-08-25T14:01:22.927Z,64.70
2022-08-25T14:04:40.035Z,65.20
2022-08-25T14:07:38.328Z,64.40
2022-08-25T14:10:45.216Z,63.80
2022-08-25T14:13:32.560Z,64.30
2022-08-25T14:16:25.500Z,63.90
2022-08-25T14:19:19.832Z,63.40
2022-08-25T14:22:05.916Z,63.40
2022-08-25T14:24:52.978Z,63.30
2022-08-25T14:28:03.595Z,63.90
2022-08-25T14:30:58.433Z,65.00
2022-08-25T14:33:53.855Z,64.60
2022-08-25T14:36:38.946Z,65.10
2022-08-25T14:39:24.393Z,64.90
2022-08-25T14:42:10.060Z,65.10
2022-08-25T14:44:56.269Z,65.50
2022-08-25T14:47:42.483Z,64.20
2022-08-25T14:50:27.561Z,64.60
2022-08-25T14:53:13.155Z,63.40
2022-08-25T14:55:59.073Z,62.10
2022-08-25T14:58:50.985Z,62.10
2022-08-25T15:01:39.806Z,63.70
2022-08-25T15:04:28.260Z,64.10
2022-08-25T15:07:32.225Z,63.50
2022-08-25T15:10:18.432Z,64.30
2022-08-25T15:13:07.264Z,63.80
2022-08-25T15:15:53.247Z,65.30
2022-08-25T15:18:38.713Z,64.80
2022-08-25T15:21:23.869Z,64.70
2022-08-25T15:24:10.928Z,66.00
2022-08-25T15:26:59.836Z,66.20
2022-08-25T15:29:46.715Z,64.90
2022-08-25T15:32:32.425Z,66.20
2022-08-25T15:35:17.496Z,67.50
2022-08-25T15:38:02.828Z,68.70
2022-08-25T15:40:50.343Z,72.50
2022-08-25T15:43:35.943Z,74.00
2022-08-25T15:46:23.885Z,74.40
2022-08-25T15:49:09.495Z,75.00
2022-08-25T15:51:56.487Z,70.80
2022-08-25T15:54:43.223Z,68.10
2022-08-25T15:57:30.761Z,65.40
2022-08-25T16:00:17.010Z,64.40
2022-08-25T16:03:03.172Z,62.40
2022-08-25T16:05:48.975Z,63.10
2022-08-25T16:08:35.280Z,62.50
2022-08-25T16:11:27.603Z,61.90
2022-08-25T16:14:12.871Z,60.90
2022-08-25T16:16:59.801Z,62.30
2022-08-25T16:19:45.915Z,62.90
2022-08-25T16:22:31.236Z,63.10
2022-08-25T16:25:17.043Z,63.20
2022-08-25T16:28:03.029Z,63.80
2022-08-25T16:30:52.704Z,63.50
2022-08-25T16:33:39.670Z,63.60
2022-08-25T16:36:27.018Z,63.70
2022-08-25T16:39:12.722Z,64.40
2022-08-25T16:41:58.709Z,65.20
2022-08-25T16:44:44.776Z,65.40
2022-08-25T16:47:29.969Z,65.90
2022-08-25T16:50:16.110Z,66.60
2022-08-25T16:53:19.942Z,66.60
2022-08-25T16:56:11.545Z,67.20
2022-08-25T16:58:59.389Z,68.40
2022-08-25T17:01:44.989Z,69.00
2022-08-25T17:04:32.185Z,69.20
2022-08-25T17:07:23.736Z,69.50
2022-08-25T17:10:12.672Z,70.40
2022-08-25T17:12:58.531Z,70.80
2022-08-25T17:15:46.677Z,71.30
2022-08-25T17:18:32.953Z,72.10
2022-08-25T17:21:25.027Z,72.30
2022-08-25T17:24:11.175Z,71.60
2022-08-25T17:26:56.602Z,72.20
2022-08-25T17:29:43.397Z,71.60
2022-08-25T17:32:30.636Z,72.30
2022-08-25T17:35:15.850Z,72.30
2022-08-25T17:38:01.285Z,72.20
2022-08-25T17:40:48.033Z,72.30
2022-08-25T17:43:40.976Z,72.70
2022-08-25T17:46:26.769Z,73.20
2022-08-25T17:49:12.342Z,74.00
2022-08-25T17:51:58.112Z,74.10
2022-08-25T17:54:43.455Z,74.40
2022-08-25T17:57:28.867Z,74.70
2022-08-25T18:00:15.795Z,74.50
2022-08-25T18:03:03.988Z,75.30
2022-08-25T18:05:50.264Z,75.00
2022-08-25T18:08:36.065Z,74.70
2022-08-25T18:11:24.546Z,75.00
2022-08-25T18:14:11.344Z,75.20
2022-08-25T18:16:57.021Z,75.10
2022-08-25T18:19:42.560Z,75.60
2022-08-25T18:22:27.994Z,75.60
2022-08-25T18:25:15.342Z,75.70
2022-08-25T18:28:02.281Z,75.40
2022-08-25T18:30:48.151Z,75.40
2022-08-25T18:33:34.991Z,75.10
2022-08-25T18:36:21.099Z,75.30
2022-08-25T18:39:25.902Z,75.60
2022-08-25T18:42:11.100Z,76.10
2022-08-25T18:44:57.040Z,76.30
2022-08-25T18:47:42.571Z,76.60
2022-08-25T18:50:31.118Z,76.70
2022-08-25T18:53:17.637Z,77.10
2022-08-25T18:56:03.317Z,77.00
2022-08-25T18:58:48.799Z,77.40
2022-08-25T19:01:37.721Z,76.60
2022-08-25T19:04:28.520Z,77.70
2022-08-25T19:07:17.191Z,77.50
2022-08-25T19:10:02.485Z,77.50
2022-08-25T19:12:48.020Z,77.50
2022-08-25T19:15:37.529Z,77.80
2022-08-25T19:18:25.895Z,77.60
2022-08-25T19:21:14.169Z,78.30
2022-08-25T19:23:59.685Z,78.00
2022-08-25T19:26:45.678Z,77.60
2022-08-25T19:29:31.557Z,77.80
2022-08-25T19:32:18.262Z,78.00
2022-08-25T19:35:07.945Z,78.60
2022-08-25T19:37:53.973Z,78.80
2022-08-25T19:40:39.318Z,78.80
2022-08-25T19:43:24.521Z,79.50
2022-08-25T19:46:10.174Z,78.60
2022-08-25T19:48:55.602Z,78.80
2022-08-25T19:51:44.639Z,79.20
2022-08-25T19:54:33.302Z,79.50
2022-08-25T19:57:28.395Z,79.20
2022-08-25T20:00:32.524Z,79.40
2022-08-25T20:03:20.470Z,79.90
2022-08-25T20:06:06.727Z,80.10
2022-08-25T20:08:58.850Z,80.20
2022-08-25T20:11:46.007Z,80.30
2022-08-25T20:14:33.780Z,80.30
2022-08-25T20:17:24.342Z,80.30
2022-08-25T20:20:16.213Z,80.70
2022-08-25T20:23:20.138Z,80.50
2022-08-25T20:26:05.436Z,80.50
2022-08-25T20:28:50.946Z,81.00
2022-08-25T20:31:36.543Z,81.20
2022-08-25T20:34:21.965Z,81.30
2022-08-25T20:37:07.985Z,80.80
2022-08-25T20:39:53.700Z,80.60
2022-08-25T20:42:40.617Z,81.50
2022-08-25T20:45:25.950Z,80.90
2022-08-25T20:48:11.176Z,81.30
2022-08-25T20:50:57.684Z,80.90
2022-08-25T20:53:44.003Z,81.10
2022-08-25T20:56:32.333Z,81.50
2022-08-25T20:59:18.108Z,82.30
2022-08-25T21:02:05.120Z,81.20
2022-08-25T21:04:51.118Z,82.20
2022-08-25T21:07:36.475Z,82.50
2022-08-25T21:10:21.973Z,81.90
2022-08-25T21:13:07.458Z,81.90
2022-08-25T21:15:52.834Z,82.30
2022-08-25T21:18:38.181Z,83.10
2022-08-25T21:21:23.912Z,83.00
2022-08-25T21:24:11.733Z,83.20
2022-08-25T21:26:59.577Z,83.40
2022-08-25T21:29:55.078Z,83.30
2022-08-25T21:32:40.425Z,83.50
2022-08-25T21:35:40.672Z,83.20
2022-08-25T21:38:29.031Z,82.80
2022-08-25T21:41:19.505Z,83.60
2022-08-25T21:44:05.359Z,83.50
2022-08-25T21:46:54.149Z,83.80
2022-08-25T21:49:40.098Z,82.80
2022-08-25T21:52:25.591Z,83.20
2022-08-25T21:55:16.146Z,83.60
2022-08-25T21:58:01.915Z,84.10
2022-08-25T22:00:47.324Z,83.80
2022-08-25T22:03:33.553Z,84.20
2022-08-25T22:06:23.077Z,83.90
2022-08-25T22:09:10.785Z,84.10
2022-08-25T22:11:56.555Z,84.30
2022-08-25T22:14:42.043Z,84.00
2022-08-25T22:17:28.246Z,84.00
2022-08-25T22:20:15.656Z,84.50
2022-08-25T22:23:01.047Z,84.90
2022-08-25T22:25:46.475Z,85.20
2022-08-25T22:28:31.841Z,85.20
2022-08-25T22:31:20.656Z,85.20
2022-08-25T22:34:06.793Z,85.50
2022-08-25T22:36:52.299Z,85.80
2022-08-25T22:39:46.306Z,85.80
2022-08-25T22:42:31.889Z,86.30
2022-08-25T22:45:17.495Z,86.60
2022-08-25T22:48:04.931Z,86.70
2022-08-25T22:50:50.133Z,87.00
2022-08-25T22:53:37.189Z,86.20
2022-08-25T22:56:31.853Z,86.90
2022-08-25T22:59:17.029Z,87.10
2022-08-25T23:02:03.660Z,87.40
2022-08-25T23:04:49.028Z,87.70
2022-08-25T23:07:36.881Z,87.60
2022-08-25T23:10:25.475Z,87.20
2022-08-25T23:13:11.144Z,87.60
2022-08-25T23:16:05.740Z,88.00
2022-08-25T23:18:51.866Z,87.20
2022-08-25T23:21:56.813Z,87.60
2022-08-25T23:24:44.623Z,87.90
2022-08-25T23:27:30.017Z,88.20
2022-08-25T23:30:15.669Z,88.40
2022-08-25T23:33:01.365Z,87.70
2022-08-25T23:35:46.733Z,87.70
2022-08-25T23:38:32.503Z,88.10
2022-08-25T23:41:20.359Z,87.90
2022-08-25T23:44:05.981Z,86.90
2022-08-25T23:46:51.453Z,88.30
2022-08-25T23:49:37.902Z,88.80
2022-08-25T23:52:23.860Z,88.70
2022-08-25T23:55:09.985Z,88.20
2022-08-25T23:57:56.103Z,87.20
